Terminal Aerodrome Forecast
Issued by NWS

Home | Current Version | Previous Version | Text Only | Print | Product List | Glossary Off
Versions: 1 2 3 4 5 6 7 8 9 10 11 12 13 14 15 16 17 18 19

236
FTUS43 KABR 231740
TAFATY
TAF
KATY 231740Z 2318/2418 19011KT P6SM SCT030
     FM232200 27012KT P6SM VCTS SCT040CB BKN200
      TEMPO 2322/2323 3SM +TSRA BKN040CB
     FM240000 29013KT P6SM SCT200
     FM240200 30009KT P6SM SKC=

USA.gov is the U.S. government's official web portal to all federal, state and local government web resources and services.